Terminal Aerodrome Forecast
Issued by NWS Sioux Falls, SD

Home | Current Version | Previous Version | Graphics & Text | Print | Product List | Glossary Off
Versions: 1 2 3 4 5 6 7 8 9 10 11 12 13 14 15 16 17

000
FTUS43 KFSD 300136 AAA
TAFFSD
TAF AMD
KFSD 300136Z 3002/3024 22005KT P6SM SCT050 BKN120
      TEMPO 3002/3003 6SM TSRA BKN050CB
     FM300500 27005KT P6SM SCT250
     FM300900 35007KT 4SM BR SKC
      TEMPO 3010/3014 1 1/2SM BR SCT003
     FM301400 34005KT P6SM SKC
     FM301600 35004KT P6SM FEW250
     FM301900 VRB03KT P6SM BKN035=

USA.gov is the U.S. government's official web portal to all federal, state and local government web resources and services.